createdAt,value
2023-05-10T00:02:40.610Z,13.40
2023-05-10T00:05:42.477Z,13.40
2023-05-10T00:08:44.291Z,13.40
2023-05-10T00:11:46.018Z,13.40
2023-05-10T00:14:47.589Z,13.40
2023-05-10T00:17:49.262Z,13.40
2023-05-10T00:20:50.930Z,13.40
2023-05-10T00:23:52.581Z,13.40
2023-05-10T00:26:54.122Z,13.40
2023-05-10T00:29:55.748Z,13.40
2023-05-10T00:32:57.399Z,13.40
2023-05-10T00:35:59.027Z,13.40
2023-05-10T00:39:00.723Z,13.40
2023-05-10T00:42:02.581Z,13.50
2023-05-10T00:45:04.604Z,13.50
2023-05-10T00:48:06.440Z,13.50
2023-05-10T00:51:08.151Z,13.50
2023-05-10T00:54:12.563Z,13.50
2023-05-10T00:57:14.179Z,13.50
2023-05-10T01:00:19.108Z,13.50
2023-05-10T01:03:20.840Z,13.50
2023-05-10T01:06:22.681Z,13.50
2023-05-10T01:09:27.201Z,13.50
2023-05-10T01:12:29.152Z,13.50
2023-05-10T01:15:32.021Z,13.60
2023-05-10T01:18:39.786Z,13.50
2023-05-10T01:21:57.411Z,13.60
2023-05-10T01:25:11.665Z,13.60
2023-05-10T01:28:24.975Z,13.60
2023-05-10T01:32:03.193Z,13.60
2023-05-10T01:35:13.849Z,13.60
2023-05-10T01:38:45.209Z,13.60
2023-05-10T01:41:59.862Z,13.60
2023-05-10T01:45:14.391Z,13.60
2023-05-10T01:48:16.974Z,13.50
2023-05-10T01:51:24.685Z,13.50
2023-05-10T01:54:27.708Z,13.50
2023-05-10T01:57:34.329Z,13.50
2023-05-10T02:00:37.615Z,13.50
2023-05-10T02:03:41.333Z,13.40
2023-05-10T02:06:44.337Z,13.40
2023-05-10T02:09:50.196Z,13.40
2023-05-10T02:12:53.417Z,13.40
2023-05-10T02:15:56.020Z,13.40
2023-05-10T02:19:00.010Z,13.50
2023-05-10T02:22:02.802Z,13.40
2023-05-10T02:25:05.029Z,13.40
2023-05-10T02:28:08.202Z,13.40
2023-05-10T02:31:11.469Z,13.40
2023-05-10T02:34:13.719Z,13.40
2023-05-10T02:37:16.954Z,13.40
2023-05-10T02:40:19.356Z,13.40
2023-05-10T02:43:24.716Z,13.40
2023-05-10T02:46:26.461Z,13.40
2023-05-10T02:49:28.096Z,13.40
2023-05-10T02:52:40.276Z,13.40
2023-05-10T02:55:44.666Z,13.40
2023-05-10T02:58:47.063Z,13.40
2023-05-10T03:01:48.744Z,13.40
2023-05-10T03:04:50.678Z,13.40
2023-05-10T03:07:53.191Z,13.40
2023-05-10T03:11:18.931Z,13.50
2023-05-10T03:14:35.701Z,13.50
2023-05-10T03:17:48.566Z,13.40
2023-05-10T03:20:52.345Z,13.50
2023-05-10T03:24:03.955Z,13.50
2023-05-10T03:27:06.727Z,13.50
2023-05-10T03:30:13.353Z,13.50
2023-05-10T03:33:15.197Z,13.50
2023-05-10T03:36:17.062Z,13.50
2023-05-10T03:39:18.729Z,13.50
2023-05-10T03:42:20.458Z,13.50
2023-05-10T03:45:22.148Z,13.50
2023-05-10T03:48:23.754Z,13.50
2023-05-10T03:51:28.930Z,13.50
2023-05-10T03:54:30.603Z,13.40
2023-05-10T03:57:32.234Z,13.40
2023-05-10T04:00:33.989Z,13.40
2023-05-10T04:03:37.305Z,13.40
2023-05-10T04:06:39.196Z,13.30
2023-05-10T04:09:41.194Z,13.30
2023-05-10T04:12:42.908Z,13.30
2023-05-10T04:15:46.105Z,13.30
2023-05-10T04:18:47.909Z,13.40
2023-05-10T04:21:49.557Z,13.30
2023-05-10T04:24:51.120Z,13.40
2023-05-10T04:27:53.191Z,13.40
2023-05-10T04:31:01.051Z,13.40
2023-05-10T04:34:02.786Z,13.40
2023-05-10T04:37:04.419Z,13.40
2023-05-10T04:40:07.045Z,13.40
2023-05-10T04:43:08.697Z,13.40
2023-05-10T04:46:10.485Z,13.40
2023-05-10T04:49:12.501Z,13.50
2023-05-10T04:52:15.281Z,13.50
2023-05-10T04:55:16.985Z,13.60
2023-05-10T04:58:18.617Z,13.60
2023-05-10T05:01:20.210Z,13.60
2023-05-10T05:04:23.835Z,13.60
2023-05-10T05:07:25.509Z,13.60
2023-05-10T05:10:27.144Z,13.60
2023-05-10T05:13:28.814Z,13.60
2023-05-10T05:16:32.274Z,13.70
2023-05-10T05:19:33.933Z,13.70
2023-05-10T05:22:37.218Z,13.70
2023-05-10T05:25:38.877Z,13.70
2023-05-10T05:28:40.479Z,13.70
2023-05-10T05:31:42.124Z,13.80
2023-05-10T05:34:46.321Z,13.80
2023-05-10T05:37:48.064Z,13.90
2023-05-10T05:40:49.640Z,13.80
2023-05-10T05:43:51.414Z,13.90
2023-05-10T05:46:53.100Z,13.90
2023-05-10T05:49:54.670Z,14.00
2023-05-10T05:52:57.457Z,14.10
2023-05-10T05:55:59.761Z,14.20
2023-05-10T05:59:01.420Z,14.30
2023-05-10T06:02:03.103Z,14.40
2023-05-10T06:05:05.092Z,14.60
2023-05-10T06:08:06.843Z,14.70
2023-05-10T06:11:08.409Z,14.80
2023-05-10T06:14:10.211Z,14.80
2023-05-10T06:17:11.871Z,14.90
2023-05-10T06:20:13.950Z,15.00
2023-05-10T06:23:15.572Z,15.10
2023-05-10T06:26:17.233Z,15.20
2023-05-10T06:29:18.841Z,15.30
2023-05-10T06:32:20.446Z,15.40
2023-05-10T06:35:22.239Z,15.50
2023-05-10T06:38:24.053Z,15.50
2023-05-10T06:41:25.676Z,15.60
2023-05-10T06:44:27.285Z,15.60
2023-05-10T06:47:28.960Z,15.70
2023-05-10T06:50:30.577Z,15.70
2023-05-10T06:53:32.170Z,15.80
2023-05-10T06:56:33.749Z,15.80
2023-05-10T06:59:35.411Z,15.90
2023-05-10T07:02:37.209Z,15.80
2023-05-10T07:05:38.976Z,15.70
2023-05-10T07:08:40.666Z,15.70
2023-05-10T07:11:42.431Z,15.70
2023-05-10T07:14:44.023Z,15.80
2023-05-10T07:17:46.506Z,15.70
2023-05-10T07:20:48.230Z,15.90
2023-05-10T07:23:50.437Z,15.90
2023-05-10T07:26:52.003Z,16.00
2023-05-10T07:29:53.565Z,16.20
2023-05-10T07:32:55.157Z,16.40
2023-05-10T07:35:56.768Z,16.60
2023-05-10T07:38:58.672Z,16.60
2023-05-10T07:42:00.293Z,16.70
2023-05-10T07:45:01.858Z,16.70
2023-05-10T07:48:03.625Z,16.70
2023-05-10T07:51:05.505Z,16.70
2023-05-10T07:54:07.256Z,16.80
2023-05-10T07:57:08.940Z,16.90
2023-05-10T08:00:14.111Z,17.00
2023-05-10T08:03:16.360Z,17.10
2023-05-10T08:06:19.577Z,17.20
2023-05-10T08:09:24.670Z,17.00
2023-05-10T08:12:26.394Z,16.80
2023-05-10T08:15:28.012Z,16.70
2023-05-10T08:18:29.647Z,16.50
2023-05-10T08:21:32.166Z,16.10
2023-05-10T08:24:39.327Z,15.80
2023-05-10T08:27:41.189Z,15.70
2023-05-10T08:30:42.842Z,15.60
2023-05-10T08:33:44.958Z,15.60
2023-05-10T08:36:46.608Z,15.60
2023-05-10T08:39:48.941Z,15.70
2023-05-10T08:43:03.498Z,15.80
2023-05-10T08:46:06.457Z,15.90
2023-05-10T08:49:11.265Z,16.10
2023-05-10T08:52:15.706Z,16.30
2023-05-10T08:55:17.805Z,16.50
2023-05-10T08:58:20.477Z,16.70
2023-05-10T09:01:23.223Z,16.90
2023-05-10T09:04:25.886Z,17.20
2023-05-10T09:07:28.765Z,17.40
2023-05-10T09:10:32.017Z,17.70
2023-05-10T09:13:33.834Z,18.10
2023-05-10T09:16:35.766Z,18.30
2023-05-10T09:19:37.367Z,18.50
2023-05-10T09:22:39.273Z,18.50
2023-05-10T09:25:42.932Z,18.40
2023-05-10T09:28:58.645Z,17.70
2023-05-10T09:32:00.311Z,16.90
2023-05-10T09:35:17.878Z,16.40
2023-05-10T09:38:19.970Z,16.30
2023-05-10T09:41:23.359Z,16.30
2023-05-10T09:44:26.991Z,16.30
2023-05-10T09:47:28.898Z,16.40
2023-05-10T09:50:31.377Z,16.40
2023-05-10T09:53:32.931Z,16.40
2023-05-10T09:56:39.798Z,16.60
2023-05-10T09:59:43.864Z,16.60
2023-05-10T10:02:55.062Z,16.60
2023-05-10T10:05:57.545Z,16.70
2023-05-10T10:08:59.199Z,16.70
2023-05-10T10:12:04.669Z,16.80
2023-05-10T10:15:07.766Z,17.00
2023-05-10T10:18:14.451Z,17.00
2023-05-10T10:21:16.565Z,17.20
2023-05-10T10:24:18.203Z,17.40
2023-05-10T10:27:38.330Z,17.50
2023-05-10T10:30:44.918Z,17.50
2023-05-10T10:34:08.261Z,17.40
2023-05-10T10:37:09.882Z,17.50
2023-05-10T10:40:34.494Z,17.50
2023-05-10T10:43:36.568Z,17.30
2023-05-10T10:47:03.357Z,16.90
2023-05-10T10:50:09.247Z,16.60
2023-05-10T10:53:12.917Z,16.50
2023-05-10T10:56:16.203Z,16.20
2023-05-10T10:59:28.975Z,16.10
2023-05-10T11:02:59.654Z,15.90
2023-05-10T11:06:02.737Z,15.80
2023-05-10T11:09:12.484Z,15.80
2023-05-10T11:12:14.203Z,15.90
2023-05-10T11:15:16.048Z,16.30
2023-05-10T11:18:37.706Z,16.70
2023-05-10T11:21:48.583Z,17.20
2023-05-10T11:25:00.069Z,17.50
2023-05-10T11:28:05.364Z,17.90
2023-05-10T11:31:07.196Z,18.00
2023-05-10T11:34:08.882Z,18.20
2023-05-10T11:37:10.601Z,18.50
2023-05-10T11:40:13.062Z,18.90
2023-05-10T11:43:14.739Z,19.00
2023-05-10T11:46:18.834Z,19.20
2023-05-10T11:49:23.983Z,19.50
2023-05-10T11:52:25.565Z,19.90
2023-05-10T11:55:27.453Z,20.40
2023-05-10T11:58:29.008Z,20.70
2023-05-10T12:01:31.484Z,20.60
2023-05-10T12:04:33.393Z,20.90
2023-05-10T12:07:35.066Z,21.20
2023-05-10T12:10:36.733Z,21.10
2023-05-10T12:13:43.837Z,20.90
2023-05-10T12:16:45.833Z,20.70
2023-05-10T12:19:48.102Z,20.60
2023-05-10T12:22:54.909Z,20.60
2023-05-10T12:26:04.845Z,20.30
2023-05-10T12:29:14.594Z,20.50
2023-05-10T12:32:16.254Z,20.50
2023-05-10T12:35:18.177Z,20.60
2023-05-10T12:38:39.310Z,20.50
2023-05-10T12:41:42.895Z,20.50
2023-05-10T12:44:45.576Z,20.30
2023-05-10T12:47:47.208Z,20.20
2023-05-10T12:50:49.286Z,20.20
2023-05-10T12:53:50.947Z,20.30
2023-05-10T12:56:52.566Z,20.50
2023-05-10T12:59:54.694Z,20.50
2023-05-10T13:02:56.316Z,20.30
2023-05-10T13:05:57.972Z,20.00
2023-05-10T13:08:59.579Z,19.90
2023-05-10T13:12:01.379Z,19.80
2023-05-10T13:15:04.299Z,19.70
2023-05-10T13:18:06.182Z,19.50
2023-05-10T13:21:08.462Z,19.10
2023-05-10T13:24:10.901Z,18.90
2023-05-10T13:27:12.507Z,18.90
2023-05-10T13:30:14.326Z,18.90
2023-05-10T13:33:16.136Z,19.20
2023-05-10T13:36:17.744Z,19.40
2023-05-10T13:39:19.364Z,19.60
2023-05-10T13:42:21.312Z,19.90
2023-05-10T13:45:22.987Z,20.20
2023-05-10T13:48:24.607Z,20.10
2023-05-10T13:51:26.196Z,20.10
2023-05-10T13:54:30.346Z,20.30
2023-05-10T13:57:32.020Z,20.20
2023-05-10T14:00:33.666Z,20.30
2023-05-10T14:03:35.383Z,20.40
2023-05-10T14:06:37.800Z,20.50
2023-05-10T14:09:39.416Z,20.40
2023-05-10T14:12:41.021Z,20.10
2023-05-10T14:15:42.819Z,20.10
2023-05-10T14:18:44.472Z,19.90
2023-05-10T14:21:46.168Z,19.60
2023-05-10T14:24:48.247Z,19.40
2023-05-10T14:27:49.835Z,19.20
2023-05-10T14:30:51.648Z,19.10
2023-05-10T14:33:53.931Z,19.00
2023-05-10T14:36:56.181Z,19.00
2023-05-10T14:39:57.830Z,19.20
2023-05-10T14:42:59.426Z,19.20
2023-05-10T14:46:01.107Z,19.40
2023-05-10T14:49:02.777Z,19.70
2023-05-10T14:52:04.435Z,19.90
2023-05-10T14:55:06.670Z,19.70
2023-05-10T14:58:08.241Z,19.70
2023-05-10T15:01:09.902Z,19.60
2023-05-10T15:04:13.812Z,19.50
2023-05-10T15:07:17.255Z,19.40
2023-05-10T15:10:19.154Z,19.30
2023-05-10T15:13:20.784Z,19.20
2023-05-10T15:16:22.958Z,19.00
2023-05-10T15:19:24.724Z,19.00
2023-05-10T15:22:26.563Z,19.10
2023-05-10T15:25:29.622Z,19.00
2023-05-10T15:28:32.425Z,19.00
2023-05-10T15:31:37.610Z,19.20
2023-05-10T15:34:39.272Z,19.30
2023-05-10T15:37:40.845Z,19.20
2023-05-10T15:40:42.474Z,19.10
2023-05-10T15:43:44.054Z,19.10
2023-05-10T15:46:46.201Z,19.20
2023-05-10T15:49:47.772Z,19.40
2023-05-10T15:52:49.552Z,19.50
2023-05-10T15:55:51.581Z,19.50
2023-05-10T15:58:53.124Z,19.40
2023-05-10T16:01:54.977Z,19.60
2023-05-10T16:04:56.562Z,19.70
2023-05-10T16:07:58.227Z,19.80
2023-05-10T16:11:00.658Z,19.80
2023-05-10T16:14:02.246Z,19.80
2023-05-10T16:17:04.633Z,19.80
2023-05-10T16:20:07.230Z,19.80
2023-05-10T16:23:08.878Z,20.10
2023-05-10T16:26:10.456Z,20.40
2023-05-10T16:29:12.044Z,20.80
2023-05-10T16:32:13.663Z,21.00
2023-05-10T16:35:15.458Z,21.40
2023-05-10T16:38:17.305Z,21.70
2023-05-10T16:41:18.886Z,22.10
2023-05-10T16:44:21.091Z,22.40
2023-05-10T16:47:26.477Z,22.60
2023-05-10T16:50:28.178Z,22.90
2023-05-10T16:53:30.930Z,23.00
2023-05-10T16:56:32.501Z,22.90
2023-05-10T16:59:34.138Z,22.50
2023-05-10T17:02:35.898Z,22.10
2023-05-10T17:05:37.785Z,21.70
2023-05-10T17:08:39.449Z,21.60
2023-05-10T17:11:42.085Z,21.50
2023-05-10T17:14:43.739Z,21.40
2023-05-10T17:17:45.354Z,21.40
2023-05-10T17:20:47.014Z,21.40
2023-05-10T17:23:48.611Z,21.40
2023-05-10T17:26:50.225Z,21.40
2023-05-10T17:29:59.067Z,21.30
2023-05-10T17:33:01.061Z,21.30
2023-05-10T17:36:02.680Z,21.20
2023-05-10T17:39:04.315Z,21.10
2023-05-10T17:42:06.120Z,20.90
2023-05-10T17:45:08.265Z,20.70
2023-05-10T17:48:11.240Z,20.50
2023-05-10T17:51:13.182Z,20.30
2023-05-10T17:54:15.017Z,20.20
2023-05-10T17:57:17.169Z,20.00
2023-05-10T18:00:18.907Z,19.80
2023-05-10T18:03:20.783Z,19.60
2023-05-10T18:06:22.560Z,19.40
2023-05-10T18:09:24.145Z,19.10
2023-05-10T18:12:25.931Z,19.00
2023-05-10T18:15:27.726Z,18.80
2023-05-10T18:18:29.420Z,18.70
2023-05-10T18:21:31.308Z,18.60
2023-05-10T18:27:38.194Z,18.40
2023-05-10T18:30:41.051Z,18.30
2023-05-10T18:33:42.838Z,18.20
2023-05-10T18:36:44.618Z,18.10
2023-05-10T18:39:46.331Z,17.90
2023-05-10T18:42:49.965Z,17.80
2023-05-10T18:45:52.365Z,17.70
2023-05-10T18:48:54.862Z,17.50
2023-05-10T18:51:56.457Z,17.40
2023-05-10T18:54:58.141Z,17.20
2023-05-10T18:58:00.278Z,17.10
2023-05-10T19:01:02.233Z,17.00
2023-05-10T19:04:03.996Z,16.90
2023-05-10T19:07:05.789Z,16.70
2023-05-10T19:10:07.771Z,16.60
2023-05-10T19:13:09.404Z,16.50
2023-05-10T19:16:12.991Z,16.40
2023-05-10T19:19:14.959Z,16.30
2023-05-10T19:22:16.614Z,16.20
2023-05-10T19:25:19.357Z,16.10
2023-05-10T19:28:22.643Z,16.00
2023-05-10T19:31:24.412Z,15.90
2023-05-10T19:34:27.244Z,15.80
2023-05-10T19:37:28.828Z,15.70
2023-05-10T19:40:30.634Z,15.60
2023-05-10T19:43:37.392Z,15.50
2023-05-10T19:46:39.205Z,15.40
2023-05-10T19:49:40.922Z,15.30
2023-05-10T19:52:42.679Z,15.20
2023-05-10T19:55:44.331Z,15.10
2023-05-10T19:58:46.105Z,15.00
2023-05-10T20:01:47.652Z,14.90
2023-05-10T20:04:49.932Z,14.80
2023-05-10T20:07:51.618Z,14.80
2023-05-10T20:10:53.289Z,14.80
2023-05-10T20:13:54.961Z,14.70
2023-05-10T20:16:56.673Z,14.60
2023-05-10T20:19:58.258Z,14.60
2023-05-10T20:22:59.864Z,14.50
2023-05-10T20:26:01.491Z,14.40
2023-05-10T20:29:03.611Z,14.40
2023-05-10T20:32:05.730Z,14.40
2023-05-10T20:35:07.695Z,14.30
2023-05-10T20:38:09.263Z,14.30
2023-05-10T20:41:10.843Z,14.20
2023-05-10T20:44:12.430Z,14.10
2023-05-10T20:47:15.299Z,14.10
2023-05-10T20:50:17.385Z,14.00
2023-05-10T20:53:19.382Z,13.90
2023-05-10T20:56:21.310Z,13.90
2023-05-10T20:59:23.167Z,13.80
2023-05-10T21:02:24.834Z,13.80
2023-05-10T21:05:26.712Z,14.00
2023-05-10T21:08:28.451Z,13.90
2023-05-10T21:11:30.242Z,13.80
2023-05-10T21:14:31.831Z,13.80
2023-05-10T21:17:33.628Z,13.80
2023-05-10T21:20:35.237Z,13.70
2023-05-10T21:23:36.793Z,13.70
2023-05-10T21:26:38.538Z,13.60
2023-05-10T21:29:40.685Z,13.60
2023-05-10T21:32:42.537Z,13.50
2023-05-10T21:35:44.163Z,13.50
2023-05-10T21:38:46.390Z,13.50
2023-05-10T21:41:47.983Z,13.40
2023-05-10T21:44:49.645Z,13.40
2023-05-10T21:47:51.273Z,13.30
2023-05-10T21:50:52.892Z,13.30
2023-05-10T21:53:54.586Z,13.30
2023-05-10T21:56:56.142Z,13.20
2023-05-10T21:59:57.786Z,13.10
2023-05-10T22:02:59.488Z,13.10
2023-05-10T22:06:01.163Z,13.10
2023-05-10T22:09:02.871Z,13.00
2023-05-10T22:12:04.732Z,13.00
2023-05-10T22:15:10.205Z,12.90
2023-05-10T22:18:12.535Z,12.90
2023-05-10T22:21:14.191Z,12.80
2023-05-10T22:24:15.790Z,12.80
2023-05-10T22:27:17.888Z,12.70
2023-05-10T22:30:20.137Z,12.70
2023-05-10T22:33:22.013Z,12.60
2023-05-10T22:36:23.615Z,12.60
2023-05-10T22:39:25.379Z,12.50
2023-05-10T22:42:27.045Z,12.60
2023-05-10T22:45:28.597Z,12.50
2023-05-10T22:48:31.258Z,12.50
2023-05-10T22:51:32.853Z,12.50
2023-05-10T22:54:36.239Z,12.50
2023-05-10T22:57:38.123Z,12.40
2023-05-10T23:00:40.277Z,12.40
2023-05-10T23:03:42.218Z,12.30
2023-05-10T23:06:43.782Z,12.30
2023-05-10T23:09:46.061Z,12.20
2023-05-10T23:12:48.081Z,12.20
2023-05-10T23:15:49.681Z,12.20
2023-05-10T23:18:51.385Z,12.10
2023-05-10T23:21:53.040Z,12.10
2023-05-10T23:24:54.691Z,12.00
2023-05-10T23:27:56.969Z,12.00
2023-05-10T23:30:59.066Z,11.90
2023-05-10T23:34:00.632Z,11.90
2023-05-10T23:37:02.428Z,11.80
2023-05-10T23:40:04.588Z,11.80
2023-05-10T23:43:06.635Z,11.70
2023-05-10T23:46:08.254Z,11.70
2023-05-10T23:49:09.869Z,11.70
2023-05-10T23:52:11.429Z,11.70
2023-05-10T23:55:13.069Z,11.70
2023-05-10T23:58:14.816Z,11.60
